Flight Track Log - Related Links

Times and Time Zones

All times are in EDT time to prevent confusion due to time zone crossing. See the N536WC flight status page for this flight to view local times or setup timezone preferences in your user account.

Time Position Orientation Groundspeed Altitude Reporting Facility
EDT Latitude Longitude Course Direction KTS MPH feet Rate Location/Type
Sun 12:02:13 PM 38.8394 -93.1169 30° Northeast 93 107 3,100  Level Kansas City Center
Sun 12:03:15 PM 38.8625 -93.0994 31° Northeast 94 108 3,500 387 Climbing Kansas City Center
Sun 12:04:17 PM 38.8864 -93.0819 30° Northeast 96 110 3,900 532 Climbing Kansas City Center
Sun 12:05:19 PM 38.9100 -93.0614 34° Northeast 99 114 4,600 581 Climbing Kansas City Center
Sun 12:06:00 PM 38.8989 -93.0050 30° Northeast  Level FlightAware Approximate
Sun 12:06:21 PM 38.9422 -93.0322 35° Northeast 107 123 5,100  Level Kansas City Center
Sun 12:07:00 PM 38.9328 -92.9797 30° Northeast  Level FlightAware Approximate
Sun 12:07:23 PM 38.9694 -93.0103 32° Northeast 113 130 5,600  Level Kansas City Center
Sun 12:08:25 PM 38.9947 -92.9886 34° Northeast 111 128 5,900 242 Climbing Kansas City Center
Sun 12:09:27 PM 39.0233 -92.9681 29° Northeast 122 140 6,100 48 Climbing Kansas City Center
Sun 12:10:29 PM 39.0567 -92.9383 35° Northeast 140 161 6,000 -48 Descending Kansas City Center
Sun 12:11:31 PM 39.0997 -92.9031 32° Northeast 150 173 6,000  Level Kansas City Center
Sun 12:12:33 PM 39.1336 -92.8747 33° Northeast 147 169 6,000  Level Kansas City Center
Sun 12:13:35 PM 39.1661 -92.8494 31° Northeast 141 162 6,000 48 Level Kansas City Center
Sun 12:14:37 PM 39.1997 -92.8219 32° Northeast 142 163 6,100  Climbing Kansas City Center
Sun 12:15:40 PM 39.2328 -92.7939 33° Northeast 143 165 6,000 -48 Descending Kansas City Center
Sun 12:16:42 PM 39.2714 -92.7625 32° Northeast 139 160 6,000  Level Kansas City Center
Sun 12:17:44 PM 39.3042 -92.7356 32° Northeast 139 160 6,000  Level Kansas City Center
Sun 12:18:46 PM 39.3378 -92.7083 32° Northeast 141 162 6,000 48 Level Kansas City Center
Sun 12:19:48 PM 39.3722 -92.6811 31° Northeast 144 166 6,100 48 Climbing Kansas City Center
Sun 12:20:50 PM 39.4058 -92.6536 32° Northeast 144 166 6,100  Level Kansas City Center
Sun 12:21:52 PM 39.4461 -92.6194 33° Northeast 144 166 6,100  Level Kansas City Center
Sun 12:22:54 PM 39.4781 -92.5914 34° Northeast 142 163 6,100  Level Kansas City Center
Sun 12:23:56 PM 39.5117 -92.5650 31° Northeast 142 163 6,100  Level Kansas City Center
Sun 12:24:58 PM 39.5444 -92.5372 33° Northeast 142 163 6,100  Level Kansas City Center
Sun 12:26:00 PM 39.5836 -92.5058 32° Northeast 141 162 6,100 -48 Level Kansas City Center
Sun 12:27:02 PM 39.6156 -92.4789 33° Northeast 140 161 6,000  Descending Kansas City Center
Sun 12:28:04 PM 39.6494 -92.4503 33° Northeast 143 165 6,100 48 Climbing Kansas City Center
Sun 12:29:06 PM 39.6825 -92.4233 32° Northeast 143 165 6,100  Level Kansas City Center
Sun 12:30:08 PM 39.7158 -92.3958 32° Northeast 143 165 6,100  Level Kansas City Center
Sun 12:31:10 PM 39.7564 -92.3625 32° Northeast 145 167 6,100  Level Kansas City Center
Sun 12:32:12 PM 39.7889 -92.3336 34° Northeast 143 165 6,100  Level Kansas City Center
Sun 12:33:14 PM 39.8225 -92.3056 33° Northeast 144 166 6,100  Level Kansas City Center
Sun 12:34:16 PM 39.8550 -92.2783 33° Northeast 143 165 6,100  Level Kansas City Center
Sun 12:35:18 PM 39.8861 -92.2525 33° Northeast 139 160 6,100  Level Kansas City Center
Sun 12:36:20 PM 39.9269 -92.2189 32° Northeast 141 162 6,100  Level Kansas City Center
Sun 12:37:22 PM 39.9611 -92.1900 33° Northeast 144 166 6,100  Level Kansas City Center
Sun 12:38:24 PM 39.9942 -92.1614 34° Northeast 145 167 6,100  Level Kansas City Center
Sun 12:39:26 PM 40.0272 -92.1339 32° Northeast 144 166 6,100  Level Kansas City Center
Sun 12:40:28 PM 40.0594 -92.1044 35° Northeast 143 165 6,100  Level Kansas City Center
Sun 12:41:30 PM 40.0989 -92.0717 32° Northeast 142 163 6,100  Level Kansas City Center
Sun 12:42:32 PM 40.1317 -92.0447 32° Northeast 142 163 6,100  Level Kansas City Center
Sun 12:43:34 PM 40.1639 -92.0156 35° Northeast 141 162 6,100  Level Kansas City Center
Sun 12:44:36 PM 40.1969 -91.9878 33° Northeast 142 163 6,100  Level Kansas City Center
Sun 12:45:38 PM 40.2297 -91.9614 32° Northeast 141 162 6,100  Level Kansas City Center
Sun 12:46:40 PM 40.2683 -91.9278 34° Northeast 141 162 6,100  Level Kansas City Center
Sun 12:47:42 PM 40.3019 -91.8994 33° Northeast 142 163 6,100  Level Kansas City Center
Sun 12:48:44 PM 40.3356 -91.8714 32° Northeast 143 165 6,100  Level Kansas City Center
Sun 12:49:46 PM 40.3683 -91.8417 35° Northeast 145 167 6,100 -48 Level Kansas City Center
Sun 12:50:48 PM 40.4072 -91.8092 32° Northeast 141 162 6,000  Descending Kansas City Center
Sun 12:51:50 PM 40.4381 -91.7817 34° Northeast 137 158 6,100 48 Climbing Kansas City Center
Sun 12:52:52 PM 40.4692 -91.7531 35° Northeast 136 157 6,100  Level Kansas City Center
Sun 12:53:54 PM 40.5022 -91.7250 33° Northeast 140 161 6,100  Level Kansas City Center
Sun 12:54:56 PM 40.5361 -91.6975 32° Northeast 142 163 6,100  Level Kansas City Center
Sun 12:55:59 PM 40.5761 -91.6619 34° Northeast 145 167 6,100  Level Kansas City Center
Sun 12:57:01 PM 40.6081 -91.6333 34° Northeast 143 165 6,100  Level Kansas City Center
Sun 12:58:03 PM 40.6411 -91.6056 33° Northeast 142 163 6,100  Level Kansas City Center
Sun 12:59:12 PM 40.6800 -91.5725 33° Northeast 140 161 6,100  Level Chicago Center
Sun 01:00:14 PM 40.7111 -91.5436 35° Northeast 139 160 6,100  Level Chicago Center
Sun 01:01:16 PM 40.7447 -91.5158 32° Northeast 142 163 6,100  Level Chicago Center
Sun 01:02:18 PM 40.7797 -91.4869 32° Northeast 148 170 6,100  Level Chicago Center
Sun 01:03:20 PM 40.8208 -91.4506 34° Northeast 149 171 6,100  Level Chicago Center
Sun 01:04:23 PM 40.8525 -91.4222 34° Northeast 142 163 6,100  Level Chicago Center
Sun 01:05:25 PM 40.8856 -91.3944 32° Northeast 141 162 6,100  Level Chicago Center
Sun 01:06:27 PM 40.9197 -91.3628 35° Northeast 147 169 6,100  Level Chicago Center
Sun 01:07:29 PM 40.9550 -91.3336 32° Northeast 150 173 6,100  Level Chicago Center
Sun 01:08:31 PM 40.9922 -91.2997 34° Northeast 147 169 6,100  Level Chicago Center
Sun 01:09:33 PM 41.0275 -91.2703 32° Northeast 149 171 6,100  Level Chicago Center
Sun 01:10:35 PM 41.0625 -91.2403 33° Northeast 149 171 6,100  Level Chicago Center
Sun 01:11:37 PM 41.0983 -91.2092 33° Northeast 153 176 6,100  Level Chicago Center
Sun 01:12:39 PM 41.1372 -91.1733 35° Northeast 145 167 6,100  Level Chicago Center
Sun 01:13:41 PM 41.1686 -91.1442 35° Northeast 141 162 6,100  Level Chicago Center
Sun 01:14:43 PM 41.2050 -91.1150 31° Northeast 148 170 6,100  Level Chicago Center
Sun 01:15:45 PM 41.2381 -91.0844 35° Northeast 147 169 6,100  Level Chicago Center
Sun 01:16:48 PM 41.2722 -91.0550 33° Northeast 148 170 6,100  Level Chicago Center
Sun 01:17:50 PM 41.3067 -91.0236 34° Northeast 149 171 6,100  Level Chicago Center
Sun 01:18:52 PM 41.3444 -90.9903 34° Northeast 140 161 6,100  Level Chicago Center
Sun 01:19:54 PM 41.3769 -90.9611 34° Northeast 141 162 6,100  Level Chicago Center
Sun 01:20:56 PM 41.4111 -90.9311 33° Northeast 144 166 6,100  Level Chicago Center
Sun 01:21:58 PM 41.4453 -90.9008 34° Northeast 147 169 6,100  Level Chicago Center
Sun 01:23:00 PM 41.4783 -90.8708 34° Northeast 146 168 6,100  Level Chicago Center
Sun 01:24:02 PM 41.5131 -90.8411 33° Northeast 146 168 6,100  Level Chicago Center
Sun 01:25:04 PM 41.5481 -90.8083 35° Northeast 143 165 6,100  Level Chicago Center
Sun 01:26:06 PM 41.5806 -90.7808 32° Northeast 140 161 6,100  Level Chicago Center
Sun 01:27:08 PM 41.6128 -90.7489 37° Northeast 142 163 6,100  Level Chicago Center
Sun 01:28:10 PM 41.6519 -90.7150 33° Northeast 142 163 6,100  Level Chicago Center
Sun 01:29:12 PM 41.6836 -90.6875 33° Northeast 138 159 6,100  Level Chicago Center
Sun 01:30:14 PM 41.7169 -90.6572 34° Northeast 143 165 6,100  Level Chicago Center
Sun 01:31:16 PM 41.7494 -90.6281 34° Northeast 143 165 6,100  Level Chicago Center
Sun 01:32:19 PM 41.7869 -90.5939 34° Northeast 141 162 6,100  Level Chicago Center
Sun 01:33:21 PM 41.8206 -90.5650 33° Northeast 141 162 6,100  Level Chicago Center
Sun 01:34:23 PM 41.8533 -90.5347 35° Northeast 142 163 6,100  Level Chicago Center
Sun 01:35:25 PM 41.8858 -90.5056 34° Northeast 143 165 6,100  Level Chicago Center
Sun 01:36:27 PM 41.9169 -90.4758 35° Northeast 140 161 6,100  Level Chicago Center
Sun 01:37:29 PM 41.9547 -90.4422 33° Northeast 137 158 6,100  Level Chicago Center
Sun 01:38:31 PM 41.9856 -90.4153 33° Northeast 137 158 6,100  Level Chicago Center
Sun 01:39:33 PM 42.0172 -90.3864 34° Northeast 137 158 6,100  Level Chicago Center
Sun 01:40:35 PM 42.0503 -90.3550 35° Northeast 144 166 6,100  Level Chicago Center
Sun 01:41:37 PM 42.0842 -90.3233 35° Northeast 149 171 6,100  Level Chicago Center
Sun 01:42:39 PM 42.1208 -90.2906 34° Northeast 137 158 6,100 -48 Level Chicago Center
Sun 01:43:41 PM 42.1522 -90.2606 35° Northeast 138 159 6,000 -48 Descending Chicago Center
Sun 01:44:43 PM 42.1847 -90.2317 33° Northeast 140 161 6,000 145 Level Chicago Center
Sun 01:45:45 PM 42.2150 -90.2044 34° Northeast 134 154 6,300 288 Climbing Chicago Center
Sun 01:46:48 PM 42.2447 -90.1778 34° Northeast 131 151 6,600 288 Climbing Chicago Center
Sun 01:47:50 PM 42.2778 -90.1464 35° Northeast 125 144 6,900 194 Climbing Chicago Center
Sun 01:48:52 PM 42.3056 -90.1206 35° Northeast 123 142 7,000  Climbing Chicago Center
Sun 01:49:54 PM 42.3375 -90.0917 34° Northeast 136 157 6,900 -48 Descending Chicago Center
Sun 01:50:56 PM 42.3703 -90.0606 35° Northeast 143 165 6,900 48 Level Chicago Center
Sun 01:51:58 PM 42.4017 -90.0306 35° Northeast 141 162 7,000 48 Climbing Chicago Center
Sun 01:53:00 PM 42.4394 -89.9972 33° Northeast 137 158 7,000 -48 Level Chicago Center
Sun 01:54:02 PM 42.4719 -89.9692 32° Northeast 139 160 6,900  Descending Chicago Center
Sun 01:55:04 PM 42.5022 -89.9386 37° Northeast 138 159 7,000  Climbing Chicago Center
Sun 01:56:06 PM 42.5369 -89.9053 35° Northeast 138 159 6,900 -48 Descending Chicago Center
Sun 01:57:08 PM 42.5708 -89.8744 34° Northeast 144 166 6,900  Level Chicago Center
Sun 01:58:10 PM 42.6042 -89.8503 28° Northeast 139 160 6,900  Level Chicago Center
Sun 01:59:13 PM 42.6306 -89.8136 46° Northeast 137 158 6,900 48 Level Chicago Center
Sun 02:00:15 PM 42.6689 -89.7839 30° Northeast 134 154 7,000 48 Climbing Chicago Center
Sun 02:01:17 PM 42.7000 -89.7556 34° Northeast 134 154 7,000 -194 Level Chicago Center
Sun 02:02:19 PM 42.7325 -89.7233 36° Northeast 139 160 6,600 -242 Descending Chicago Center
Sun 02:03:21 PM 42.7697 -89.6900 33° Northeast 154 177 6,500 -387 Descending Chicago Center
Sun 02:04:23 PM 42.7978 -89.6558 42° Northeast 143 165 5,800 -629 Descending Chicago Center
Sun 02:05:25 PM 42.8381 -89.6233 31° Northeast 142 163 5,200 -726 Descending Chicago Center
Sun 02:06:27 PM 42.8733 -89.5917 33° Northeast 149 171 4,300 -726 Descending Chicago Center
Sun 02:07:29 PM 42.9108 -89.5667 26° Northeast 149 171 3,700 -242 Descending Chicago Center
Sun 02:08:31 PM 42.9469 -89.5497 19° North 142 163 3,800 -97 Climbing Chicago Center
Sun 02:09:33 PM 42.9811 -89.5325 20° North 136 157 3,500 -48 Descending Chicago Center
Sun 02:10:36 PM 43.0211 -89.5097 23° Northeast 134 154 3,700  Climbing Chicago Center
Sun 02:11:38 PM 43.0550 -89.4897 23° Northeast 133 153 3,500 -97 Descending Chicago Center
Sun 02:12:40 PM 43.0897 -89.4753 17° North 131 151 3,500 48 Level Chicago Center
Sun 02:13:42 PM 43.1247 -89.4642 13° North 129 148 3,600  Climbing Chicago Center
Sun 02:14:44 PM 43.1619 -89.4500 16° North 133 153 3,500 -48 Descending Chicago Center
Sun 02:15:46 PM 43.1986 -89.4381 13° North 135 155 3,500 -48 Level Chicago Center
Sun 02:16:48 PM 43.2394 -89.4242 14° North 132 152 3,400  Descending Chicago Center
Sun 02:17:50 PM 43.2722 -89.4108 16° North 128 147 3,500 97 Climbing Chicago Center

Login

Don't have an account? Register now (free) for customized features, flight alerts, and more!